BCC981 EDXW-EDHL
Flight info
| Callsign | BCC981 |
|---|---|
| Flight time | 0h 29m |
| Altitude | 21000 |
| Route | OLDIP1B OLDIP DCT PIZID DCT EKERN T905 BOGMU BOGMU1R |
| Aircraft | A320/M-SDE3FGHIRWY/LB1 |
Departure
| Time | 2026-04-25 16:01 |
|---|---|
| Airport | Westerland Sylt Airport (EDXW) |
Arrival
| Time | 2026-04-25 16:31 |
|---|---|
| Airport | Lübeck Blankensee Airport (EDHL) |
| Time | Latitude | Longitude | Altitude | Speed | Heading |
|---|---|---|---|---|---|
| 2026-04-25 15:27 | 54.91386 | 8.33118 | 40 ft | 0 kts | 270° |
| 2026-04-25 15:50 | 54.91387 | 8.33156 | 40 ft | 4 kts | 269° |
| 2026-04-25 15:50 | 54.91386 | 8.33202 | 40 ft | 4 kts | 272° |
| 2026-04-25 15:51 | 54.91385 | 8.33241 | 40 ft | 0 kts | 274° |
| 2026-04-25 15:56 | 54.91380 | 8.33235 | 40 ft | 1 kts | 211° |
| 2026-04-25 15:56 | 54.91356 | 8.33224 | 40 ft | 6 kts | 194° |
| 2026-04-25 15:56 | 54.91302 | 8.33200 | 40 ft | 11 kts | 194° |
| 2026-04-25 15:56 | 54.91215 | 8.33179 | 39 ft | 14 kts | 179° |
| 2026-04-25 15:57 | 54.91104 | 8.33182 | 39 ft | 18 kts | 180° |
| 2026-04-25 15:57 | 54.90977 | 8.33117 | 38 ft | 14 kts | 199° |
| 2026-04-25 15:57 | 54.90886 | 8.33169 | 39 ft | 16 kts | 153° |
| 2026-04-25 15:57 | 54.90768 | 8.33220 | 39 ft | 19 kts | 175° |
| 2026-04-25 15:58 | 54.90624 | 8.33240 | 39 ft | 22 kts | 175° |
| 2026-04-25 15:58 | 54.90464 | 8.33294 | 39 ft | 25 kts | 155° |
| 2026-04-25 15:58 | 54.90328 | 8.33483 | 39 ft | 26 kts | 126° |
| 2026-04-25 15:58 | 54.90259 | 8.33752 | 40 ft | 25 kts | 98° |
| 2026-04-25 15:59 | 54.90235 | 8.34060 | 40 ft | 24 kts | 94° |
| 2026-04-25 15:59 | 54.90258 | 8.34357 | 40 ft | 27 kts | 79° |
| 2026-04-25 15:59 | 54.90292 | 8.34675 | 40 ft | 24 kts | 80° |
| 2026-04-25 15:59 | 54.90323 | 8.34973 | 40 ft | 25 kts | 79° |
| 2026-04-25 16:00 | 54.90369 | 8.35146 | 39 ft | 14 kts | 47° |
| 2026-04-25 16:00 | 54.90399 | 8.35169 | 41 ft | 14 kts | 8° |
| 2026-04-25 16:00 | 54.90619 | 8.34920 | 41 ft | 57 kts | 324° |
| 2026-04-25 16:00 | 54.91118 | 8.34296 | 44 ft | 116 kts | 324° |
| 2026-04-25 16:01 | 54.91856 | 8.33394 | 445 ft | 131 kts | 323° |
| 2026-04-25 16:01 | 54.92601 | 8.32489 | 1243 ft | 130 kts | 324° |
| 2026-04-25 16:01 | 54.93329 | 8.31585 | 2092 ft | 127 kts | 323° |
| 2026-04-25 16:01 | 54.94037 | 8.30705 | 2875 ft | 124 kts | 324° |
| 2026-04-25 16:02 | 54.94740 | 8.29832 | 3483 ft | 129 kts | 324° |
| 2026-04-25 16:02 | 54.95521 | 8.28861 | 3828 ft | 151 kts | 323° |
| 2026-04-25 16:02 | 54.96440 | 8.27715 | 4219 ft | 173 kts | 323° |
| 2026-04-25 16:02 | 54.97428 | 8.26489 | 5078 ft | 175 kts | 323° |
| 2026-04-25 16:03 | 54.98408 | 8.25213 | 5971 ft | 177 kts | 315° |
| 2026-04-25 16:03 | 54.98882 | 8.23225 | 6785 ft | 193 kts | 275° |
| 2026-04-25 16:03 | 54.98404 | 8.20912 | 7616 ft | 214 kts | 250° |
| 2026-04-25 16:03 | 54.97530 | 8.18766 | 8508 ft | 220 kts | 243° |
| 2026-04-25 16:04 | 54.96559 | 8.16678 | 9396 ft | 223 kts | 243° |
| 2026-04-25 16:04 | 54.95574 | 8.14583 | 10244 ft | 226 kts | 241° |
| 2026-04-25 16:04 | 54.94232 | 8.12922 | 10976 ft | 257 kts | 208° |
| 2026-04-25 16:04 | 54.92343 | 8.12771 | 11551 ft | 295 kts | 173° |
| 2026-04-25 16:05 | 54.90355 | 8.14260 | 11885 ft | 328 kts | 150° |
| 2026-04-25 16:05 | 54.88461 | 8.16713 | 12294 ft | 349 kts | 140° |
| 2026-04-25 16:05 | 54.84852 | 8.22632 | 13745 ft | 363 kts | 136° |
| 2026-04-25 16:06 | 54.82999 | 8.25660 | 14449 ft | 368 kts | 139° |
| 2026-04-25 16:06 | 54.80955 | 8.28345 | 15131 ft | 371 kts | 148° |
| 2026-04-25 16:06 | 54.78791 | 8.30824 | 15829 ft | 375 kts | 150° |
| 2026-04-25 16:06 | 54.76569 | 8.33255 | 16520 ft | 379 kts | 151° |
| 2026-04-25 16:07 | 54.74316 | 8.35667 | 17222 ft | 383 kts | 151° |
| 2026-04-25 16:07 | 54.73548 | 8.36484 | 17463 ft | 384 kts | 151° |
| 2026-04-25 16:07 | 54.69911 | 8.41030 | 18558 ft | 394 kts | 135° |
| 2026-04-25 16:07 | 54.68139 | 8.44658 | 19151 ft | 397 kts | 121° |
| 2026-04-25 16:08 | 54.66811 | 8.48825 | 19772 ft | 395 kts | 108° |
| 2026-04-25 16:08 | 54.65791 | 8.53244 | 20405 ft | 397 kts | 107° |
| 2026-04-25 16:08 | 54.64753 | 8.57697 | 20913 ft | 402 kts | 107° |
| 2026-04-25 16:08 | 54.63695 | 8.62177 | 21046 ft | 405 kts | 108° |
| 2026-04-25 16:09 | 54.62618 | 8.66806 | 21078 ft | 425 kts | 105° |
| 2026-04-25 16:09 | 54.61731 | 8.71786 | 21070 ft | 443 kts | 98° |
| 2026-04-25 16:09 | 54.61150 | 8.77090 | 21069 ft | 459 kts | 93° |
| 2026-04-25 16:09 | 54.60655 | 8.82662 | 21070 ft | 478 kts | 93° |
| 2026-04-25 16:10 | 54.60312 | 8.86449 | 21063 ft | 488 kts | 94° |
| 2026-04-25 16:10 | 54.59589 | 8.94242 | 21068 ft | 505 kts | 94° |
| 2026-04-25 16:10 | 54.59018 | 9.00247 | 21063 ft | 509 kts | 94° |
| 2026-04-25 16:10 | 54.58436 | 9.06271 | 21061 ft | 511 kts | 95° |
| 2026-04-25 16:11 | 54.57850 | 9.12321 | 21058 ft | 511 kts | 95° |
| 2026-04-25 16:11 | 54.57267 | 9.18357 | 21058 ft | 511 kts | 95° |
| 2026-04-25 16:11 | 54.56684 | 9.24400 | 21057 ft | 511 kts | 95° |
| 2026-04-25 16:11 | 54.56100 | 9.30451 | 21056 ft | 512 kts | 95° |
| 2026-04-25 16:12 | 54.55516 | 9.36505 | 21058 ft | 512 kts | 95° |
| 2026-04-25 16:12 | 54.54931 | 9.42551 | 21057 ft | 512 kts | 95° |
| 2026-04-25 16:12 | 54.54343 | 9.48601 | 21058 ft | 512 kts | 95° |
| 2026-04-25 16:12 | 54.54152 | 9.50562 | 21058 ft | 512 kts | 95° |
| 2026-04-25 16:13 | 54.53152 | 9.60694 | 21050 ft | 512 kts | 95° |
| 2026-04-25 16:13 | 54.52546 | 9.66743 | 21047 ft | 512 kts | 95° |
| 2026-04-25 16:13 | 54.51756 | 9.72734 | 21034 ft | 512 kts | 103° |
| 2026-04-25 16:13 | 54.50580 | 9.78411 | 20740 ft | 497 kts | 110° |
| 2026-04-25 16:14 | 54.49011 | 9.83568 | 20118 ft | 491 kts | 122° |
| 2026-04-25 16:14 | 54.46857 | 9.88063 | 19483 ft | 485 kts | 138° |
| 2026-04-25 16:14 | 54.44219 | 9.91456 | 19330 ft | 465 kts | 152° |
| 2026-04-25 16:14 | 54.41387 | 9.93891 | 19044 ft | 450 kts | 159° |
| 2026-04-25 16:15 | 54.38509 | 9.96186 | 17985 ft | 462 kts | 159° |
| 2026-04-25 16:15 | 54.35595 | 9.98540 | 17196 ft | 462 kts | 158° |
| 2026-04-25 16:15 | 54.32701 | 10.00902 | 16559 ft | 459 kts | 158° |
| 2026-04-25 16:15 | 54.29831 | 10.03249 | 15965 ft | 454 kts | 158° |
| 2026-04-25 16:16 | 54.26996 | 10.05562 | 15375 ft | 450 kts | 158° |
| 2026-04-25 16:16 | 54.24183 | 10.07845 | 14775 ft | 445 kts | 158° |
| 2026-04-25 16:16 | 54.21395 | 10.10094 | 14182 ft | 441 kts | 158° |
| 2026-04-25 16:16 | 54.18633 | 10.12317 | 13537 ft | 436 kts | 158° |
| 2026-04-25 16:17 | 54.15904 | 10.14512 | 12866 ft | 431 kts | 158° |
| 2026-04-25 16:17 | 54.13205 | 10.16683 | 12191 ft | 426 kts | 158° |
| 2026-04-25 16:17 | 54.10541 | 10.18822 | 11520 ft | 421 kts | 158° |
| 2026-04-25 16:17 | 54.07904 | 10.20932 | 10863 ft | 417 kts | 158° |
| 2026-04-25 16:18 | 54.05327 | 10.22995 | 10680 ft | 400 kts | 158° |
| 2026-04-25 16:18 | 54.04492 | 10.23664 | 10633 ft | 394 kts | 158° |
| 2026-04-25 16:18 | 54.00721 | 10.27562 | 10424 ft | 373 kts | 138° |
| 2026-04-25 16:18 | 53.99106 | 10.30846 | 10304 ft | 360 kts | 121° |
| 2026-04-25 16:19 | 53.98065 | 10.34613 | 10174 ft | 346 kts | 104° |
| 2026-04-25 16:19 | 53.97613 | 10.38522 | 10019 ft | 331 kts | 89° |
| 2026-04-25 16:19 | 53.97493 | 10.42391 | 9715 ft | 327 kts | 87° |
| 2026-04-25 16:20 | 53.97253 | 10.50049 | 9046 ft | 322 kts | 88° |
| 2026-04-25 16:20 | 53.97131 | 10.53825 | 8715 ft | 320 kts | 88° |
| 2026-04-25 16:20 | 53.96883 | 10.61332 | 8057 ft | 316 kts | 88° |
| 2026-04-25 16:21 | 53.96758 | 10.65040 | 7750 ft | 313 kts | 88° |
| 2026-04-25 16:21 | 53.96634 | 10.68718 | 7431 ft | 311 kts | 88° |
| 2026-04-25 16:21 | 53.96509 | 10.72380 | 7119 ft | 309 kts | 88° |
| 2026-04-25 16:21 | 53.96384 | 10.76014 | 6811 ft | 307 kts | 88° |
| 2026-04-25 16:22 | 53.96259 | 10.79624 | 6516 ft | 304 kts | 88° |
| 2026-04-25 16:22 | 53.96137 | 10.83198 | 6202 ft | 302 kts | 88° |
| 2026-04-25 16:22 | 53.96013 | 10.86752 | 5869 ft | 301 kts | 88° |
| 2026-04-25 16:22 | 53.95886 | 10.90276 | 5594 ft | 297 kts | 89° |
| 2026-04-25 16:23 | 53.95757 | 10.93731 | 5455 ft | 289 kts | 89° |
| 2026-04-25 16:23 | 53.95631 | 10.97082 | 5328 ft | 280 kts | 89° |
| 2026-04-25 16:23 | 53.95363 | 11.00281 | 5196 ft | 277 kts | 105° |
| 2026-04-25 16:23 | 53.94467 | 11.03114 | 5074 ft | 270 kts | 130° |
| 2026-04-25 16:24 | 53.93075 | 11.05117 | 4891 ft | 256 kts | 154° |
| 2026-04-25 16:24 | 53.91452 | 11.06195 | 4482 ft | 248 kts | 167° |
| 2026-04-25 16:24 | 53.89813 | 11.06792 | 4211 ft | 233 kts | 187° |
| 2026-04-25 16:24 | 53.88310 | 11.06273 | 4101 ft | 211 kts | 213° |
| 2026-04-25 16:25 | 53.87180 | 11.04938 | 3953 ft | 189 kts | 235° |
| 2026-04-25 16:25 | 53.86897 | 11.04374 | 3896 ft | 183 kts | 242° |
| 2026-04-25 16:25 | 53.86125 | 11.01284 | 3531 ft | 166 kts | 259° |
| 2026-04-25 16:25 | 53.85779 | 10.99451 | 3313 ft | 162 kts | 259° |
| 2026-04-25 16:26 | 53.85554 | 10.98260 | 3163 ft | 158 kts | 259° |
| 2026-04-25 16:26 | 53.85227 | 10.96541 | 2961 ft | 149 kts | 259° |
| 2026-04-25 16:26 | 53.84918 | 10.94910 | 2761 ft | 142 kts | 259° |
| 2026-04-25 16:26 | 53.84622 | 10.93349 | 2569 ft | 136 kts | 259° |
| 2026-04-25 16:27 | 53.84339 | 10.91862 | 2389 ft | 130 kts | 259° |
| 2026-04-25 16:27 | 53.84064 | 10.90408 | 2206 ft | 129 kts | 257° |
| 2026-04-25 16:27 | 53.83792 | 10.88979 | 2033 ft | 126 kts | 259° |
| 2026-04-25 16:27 | 53.83524 | 10.87568 | 1861 ft | 125 kts | 258° |
| 2026-04-25 16:28 | 53.83257 | 10.86166 | 1686 ft | 124 kts | 258° |
| 2026-04-25 16:28 | 53.82992 | 10.84776 | 1507 ft | 124 kts | 258° |
| 2026-04-25 16:28 | 53.82726 | 10.83385 | 1337 ft | 124 kts | 256° |
| 2026-04-25 16:28 | 53.82464 | 10.82011 | 1162 ft | 124 kts | 256° |
| 2026-04-25 16:29 | 53.82201 | 10.80617 | 972 ft | 124 kts | 256° |
| 2026-04-25 16:29 | 53.81924 | 10.79231 | 802 ft | 124 kts | 255° |
| 2026-04-25 16:29 | 53.81655 | 10.77834 | 621 ft | 124 kts | 258° |
| 2026-04-25 16:29 | 53.81392 | 10.76440 | 432 ft | 125 kts | 256° |
| 2026-04-25 16:30 | 53.81126 | 10.75029 | 267 ft | 126 kts | 257° |
| 2026-04-25 16:30 | 53.80851 | 10.73600 | 139 ft | 128 kts | 255° |
| 2026-04-25 16:30 | 53.80595 | 10.72232 | 60 ft | 108 kts | 253° |
| 2026-04-25 16:30 | 53.80410 | 10.71285 | 61 ft | 60 kts | 252° |
| 2026-04-25 16:31 | 53.80329 | 10.70859 | 55 ft | 28 kts | 253° |
| 2026-04-25 16:31 | 53.80318 | 10.70598 | 56 ft | 20 kts | 309° |
| 2026-04-25 16:31 | 53.80397 | 10.70498 | 59 ft | 0 kts | 326° |
| 2026-04-25 16:32 | 53.80404 | 10.70489 | 61 ft | 3 kts | 326° |
| 2026-04-25 16:32 | 53.80434 | 10.70453 | 55 ft | 7 kts | 319° |
| 2026-04-25 16:33 | 53.80434 | 10.70382 | 57 ft | 4 kts | 255° |
| 2026-04-25 16:33 | 53.80445 | 10.70352 | 59 ft | 0 kts | 347° |
| 2026-04-25 16:33 | 53.80458 | 10.70346 | 58 ft | 4 kts | 341° |
| 2026-04-25 16:33 | 53.80474 | 10.70336 | 56 ft | 0 kts | 340° |